sensor_id;sensor_type;location;lat;lon;timestamp;pressure;altitude;pressure_sealevel;temperature;humidity
43838;BME280;65998;46.256;7.534;2024-03-23T00:53:53;86823.50;;;7.36;50.78
43838;BME280;65998;46.256;7.534;2024-03-23T00:56:19;86824.88;;;7.33;50.77
43838;BME280;65998;46.256;7.534;2024-03-23T00:58:45;86816.00;;;7.37;49.68
43838;BME280;65998;46.256;7.534;2024-03-23T01:01:10;86811.88;;;7.40;49.81
43838;BME280;65998;46.256;7.534;2024-03-23T01:03:36;86816.00;;;7.37;50.29
43838;BME280;65998;46.256;7.534;2024-03-23T01:06:03;86800.28;;;7.40;50.13
43838;BME280;65998;46.256;7.534;2024-03-23T01:08:29;86800.28;;;7.35;49.84
43838;BME280;65998;46.256;7.534;2024-03-23T01:10:59;86789.34;;;7.33;50.36
43838;BME280;65998;46.256;7.534;2024-03-23T01:13:27;86798.94;;;7.28;50.64
43838;BME280;65998;46.256;7.534;2024-03-23T01:15:54;86800.28;;;7.31;49.97
43838;BME280;65998;46.256;7.534;2024-03-23T01:18:22;86792.09;;;7.31;50.32
43838;BME280;65998;46.256;7.534;2024-03-23T01:20:48;86792.78;;;7.32;50.10
43838;BME280;65998;46.256;7.534;2024-03-23T01:23:14;86786.63;;;7.33;50.28
43838;BME280;65998;46.256;7.534;2024-03-23T01:25:40;86784.56;;;7.30;49.98
43838;BME280;65998;46.256;7.534;2024-03-23T01:28:07;86785.91;;;7.27;49.72
43838;BME280;65998;46.256;7.534;2024-03-23T01:30:36;86781.84;;;7.30;50.19
43838;BME280;65998;46.256;7.534;2024-03-23T01:33:02;86784.56;;;7.28;49.87
43838;BME280;65998;46.256;7.534;2024-03-23T01:35:28;86782.53;;;7.32;49.90
43838;BME280;65998;46.256;7.534;2024-03-23T01:37:55;86776.38;;;7.36;49.47
43838;BME280;65998;46.256;7.534;2024-03-23T01:40:20;86777.03;;;7.36;49.55
43838;BME280;65998;46.256;7.534;2024-03-23T01:42:56;86774.31;;;7.36;49.62
43838;BME280;65998;46.256;7.534;2024-03-23T01:45:23;86773.66;;;7.30;49.49
43838;BME280;65998;46.256;7.534;2024-03-23T01:47:53;86774.34;;;7.28;50.07
43838;BME280;65998;46.256;7.534;2024-03-23T01:50:20;86769.53;;;7.27;50.13
43838;BME280;65998;46.256;7.534;2024-03-23T01:52:47;86772.94;;;7.23;49.79
43838;BME280;65998;46.256;7.534;2024-03-23T01:55:13;86768.84;;;7.24;49.83
43838;BME280;65998;46.256;7.534;2024-03-23T01:57:39;86766.13;;;7.22;50.67
43838;BME280;65998;46.256;7.534;2024-03-23T02:00:06;86757.25;;;7.18;50.33
43838;BME280;65998;46.256;7.534;2024-03-23T02:02:32;86761.34;;;7.15;50.35
43838;BME280;65998;46.256;7.534;2024-03-23T02:04:58;86762.72;;;7.16;50.96
43838;BME280;65998;46.256;7.534;2024-03-23T02:07:24;86749.75;;;7.14;51.89
43838;BME280;65998;46.256;7.534;2024-03-23T02:09:51;86750.44;;;7.15;51.28
43838;BME280;65998;46.256;7.534;2024-03-23T02:12:18;86747.03;;;7.12;50.95
43838;BME280;65998;46.256;7.534;2024-03-23T02:14:46;86737.47;;;7.11;51.18
43838;BME280;65998;46.256;7.534;2024-03-23T02:17:12;86747.03;;;7.10;51.97
43838;BME280;65998;46.256;7.534;2024-03-23T02:19:38;86735.41;;;7.10;51.54
43838;BME280;65998;46.256;7.534;2024-03-23T02:22:04;86743.63;;;7.08;51.14
43838;BME280;65998;46.256;7.534;2024-03-23T02:24:30;86735.41;;;7.05;51.35
43838;BME280;65998;46.256;7.534;2024-03-23T02:26:56;86737.47;;;7.05;51.63
43838;BME280;65998;46.256;7.534;2024-03-23T02:29:21;86733.38;;;7.04;51.29
43838;BME280;65998;46.256;7.534;2024-03-23T02:31:47;86741.56;;;7.04;51.45
43838;BME280;65998;46.256;7.534;2024-03-23T02:34:13;86734.72;;;7.07;51.59
43838;BME280;65998;46.256;7.534;2024-03-23T02:36:39;86731.31;;;7.07;51.06
43838;BME280;65998;46.256;7.534;2024-03-23T02:39:05;86736.09;;;7.04;52.63
43838;BME280;65998;46.256;7.534;2024-03-23T02:41:31;86733.38;;;7.04;52.46
43838;BME280;65998;46.256;7.534;2024-03-23T02:43:56;86727.91;;;7.04;51.53
43838;BME280;65998;46.256;7.534;2024-03-23T02:46:22;86729.28;;;6.99;51.75
43838;BME280;65998;46.256;7.534;2024-03-23T02:48:51;86729.28;;;6.95;51.63
43838;BME280;65998;46.256;7.534;2024-03-23T02:51:17;86726.56;;;6.89;51.71
43838;BME280;65998;46.256;7.534;2024-03-23T02:53:42;86734.09;;;6.86;50.35
43838;BME280;65998;46.256;7.534;2024-03-23T02:56:08;86731.34;;;6.86;51.27
43838;BME280;65998;46.256;7.534;2024-03-23T02:58:34;86723.16;;;6.84;50.10
43838;BME280;65998;46.256;7.534;2024-03-23T03:01:00;86724.53;;;6.83;50.80
43838;BME280;65998;46.256;7.534;2024-03-23T03:03:26;86721.13;;;6.85;51.31
43838;BME280;65998;46.256;7.534;2024-03-23T03:05:55;86715.66;;;6.87;50.74
43838;BME280;65998;46.256;7.534;2024-03-23T03:08:21;86705.41;;;6.87;49.97
43838;BME280;65998;46.256;7.534;2024-03-23T03:10:47;86704.03;;;6.92;49.91
43838;BME280;65998;46.256;7.534;2024-03-23T03:13:13;86701.25;;;7.11;49.94
43838;BME280;65998;46.256;7.534;2024-03-23T03:15:43;86701.97;;;7.01;50.30
43838;BME280;65998;46.256;7.534;2024-03-23T03:18:09;86684.91;;;6.96;50.31
43838;BME280;65998;46.256;7.534;2024-03-23T03:20:38;86686.94;;;7.02;49.50
43838;BME280;65998;46.256;7.534;2024-03-23T03:23:04;86680.78;;;7.01;49.85
43838;BME280;65998;46.256;7.534;2024-03-23T03:25:30;86678.06;;;7.03;49.92
43838;BME280;65998;46.256;7.534;2024-03-23T03:27:58;86672.56;;;7.12;49.15
43838;BME280;65998;46.256;7.534;2024-03-23T03:30:25;86669.81;;;7.20;48.78
43838;BME280;65998;46.256;7.534;2024-03-23T03:32:53;86665.69;;;7.29;49.99
43838;BME280;65998;46.256;7.534;2024-03-23T03:35:20;86656.78;;;7.34;49.81
43838;BME280;65998;46.256;7.534;2024-03-23T03:37:46;86668.38;;;7.41;49.78
43838;BME280;65998;46.256;7.534;2024-03-23T03:40:12;86664.91;;;7.53;50.51
43838;BME280;65998;46.256;7.534;2024-03-23T03:42:38;86662.78;;;7.65;49.66
43838;BME280;65998;46.256;7.534;2024-03-23T03:45:05;86656.56;;;7.77;49.10
43838;BME280;65998;46.256;7.534;2024-03-23T03:47:30;86650.34;;;7.89;49.19
43838;BME280;65998;46.256;7.534;2024-03-23T03:49:56;86663.97;;;7.97;48.82
43838;BME280;65998;46.256;7.534;2024-03-23T03:52:22;86656.41;;;8.04;49.15
43838;BME280;65998;46.256;7.534;2024-03-23T03:54:48;86646.75;;;8.13;49.57
43838;BME280;65998;46.256;7.534;2024-03-23T03:57:13;86651.47;;;8.22;49.24
43838;BME280;65998;46.256;7.534;2024-03-23T03:59:39;86639.13;;;8.25;49.14
43838;BME280;65998;46.256;7.534;2024-03-23T04:02:05;86639.13;;;8.34;48.22
43838;BME280;65998;46.256;7.534;2024-03-23T04:04:31;86631.50;;;8.42;48.31
43838;BME280;65998;46.256;7.534;2024-03-23T04:07:00;86645.13;;;8.52;47.64
43838;BME280;65998;46.256;7.534;2024-03-23T04:09:26;86623.84;;;8.57;47.62
43838;BME280;65998;46.256;7.534;2024-03-23T04:11:52;86626.53;;;8.63;47.36
43838;BME280;65998;46.256;7.534;2024-03-23T04:14:18;86615.56;;;8.65;47.53
43838;BME280;65998;46.256;7.534;2024-03-23T04:16:44;86615.50;;;8.71;47.25
43838;BME280;65998;46.256;7.534;2024-03-23T04:19:10;86616.13;;;8.76;47.17
43838;BME280;65998;46.256;7.534;2024-03-23T04:21:37;86603.81;;;8.77;46.91
43838;BME280;65998;46.256;7.534;2024-03-23T04:24:04;86596.94;;;8.78;46.42
43838;BME280;65998;46.256;7.534;2024-03-23T04:26:29;86595.53;;;8.81;46.01
43838;BME280;65998;46.256;7.534;2024-03-23T04:28:56;86596.19;;;8.85;45.57
43838;BME280;65998;46.256;7.534;2024-03-23T04:31:21;86595.44;;;8.91;45.68
43838;BME280;65998;46.256;7.534;2024-03-23T04:33:47;86585.78;;;8.96;45.92
43838;BME280;65998;46.256;7.534;2024-03-23T04:36:13;86583.03;;;8.96;45.51
43838;BME280;65998;46.256;7.534;2024-03-23T04:38:39;86581.66;;;8.97;45.51
43838;BME280;65998;46.256;7.534;2024-03-23T04:41:04;86578.91;;;8.99;45.06
43838;BME280;65998;46.256;7.534;2024-03-23T04:43:31;86576.84;;;9.00;44.67
43838;BME280;65998;46.256;7.534;2024-03-23T04:45:56;86570.63;;;9.03;44.55
43838;BME280;65998;46.256;7.534;2024-03-23T04:48:23;86562.38;;;9.07;44.43
43838;BME280;65998;46.256;7.534;2024-03-23T04:50:49;86549.34;;;9.08;44.46
43838;BME280;65998;46.256;7.534;2024-03-23T04:53:16;86562.38;;;9.07;44.96
43838;BME280;65998;46.256;7.534;2024-03-23T04:55:42;86560.97;;;9.08;45.13
43838;BME280;65998;46.256;7.534;2024-03-23T04:58:08;86558.25;;;9.06;46.29
43838;BME280;65998;46.256;7.534;2024-03-23T05:00:34;86551.34;;;9.11;46.52
43838;BME280;65998;46.256;7.534;2024-03-23T05:03:00;86547.25;;;9.10;46.76
43838;BME280;65998;46.256;7.534;2024-03-23T05:05:26;86547.97;;;9.07;46.61
43838;BME280;65998;46.256;7.534;2024-03-23T05:07:52;86535.59;;;9.12;46.65
43838;BME280;65998;46.256;7.534;2024-03-23T05:10:17;86525.78;;;9.29;46.57
43838;BME280;65998;46.256;7.534;2024-03-23T05:12:43;86520.88;;;9.38;46.79
43838;BME280;65998;46.256;7.534;2024-03-23T05:15:09;86519.34;;;9.49;47.40
43838;BME280;65998;46.256;7.534;2024-03-23T05:17:35;86519.97;;;9.53;47.46
43838;BME280;65998;46.256;7.534;2024-03-23T05:20:01;86508.97;;;9.55;47.12
43838;BME280;65998;46.256;7.534;2024-03-23T05:22:27;86507.53;;;9.60;47.15
43838;BME280;65998;46.256;7.534;2024-03-23T05:24:53;86513.63;;;9.65;47.29
43838;BME280;65998;46.256;7.534;2024-03-23T05:27:19;86509.53;;;9.64;47.00
43838;BME280;65998;46.256;7.534;2024-03-23T05:29:44;86514.91;;;9.72;46.81
43838;BME280;65998;46.256;7.534;2024-03-23T05:32:10;86503.94;;;9.70;47.39
43838;BME280;65998;46.256;7.534;2024-03-23T05:34:36;86493.69;;;9.69;47.27
43838;BME280;65998;46.256;7.534;2024-03-23T05:37:02;86490.97;;;9.67;47.27
43838;BME280;65998;46.256;7.534;2024-03-23T05:39:28;86490.34;;;9.64;47.92
43838;BME280;65998;46.256;7.534;2024-03-23T05:41:54;86496.53;;;9.63;48.65
43838;BME280;65998;46.256;7.534;2024-03-23T05:44:19;86487.63;;;9.62;48.87
43838;BME280;65998;46.256;7.534;2024-03-23T05:46:45;86497.88;;;9.64;49.91
43838;BME280;65998;46.256;7.534;2024-03-23T05:49:11;86486.97;;;9.59;50.03
43838;BME280;65998;46.256;7.534;2024-03-23T05:51:37;86495.91;;;9.58;49.85
43838;BME280;65998;46.256;7.534;2024-03-23T05:54:02;86505.50;;;9.59;49.89
43838;BME280;65998;46.256;7.534;2024-03-23T05:56:28;86503.50;;;9.55;49.87
43838;BME280;65998;46.256;7.534;2024-03-23T05:58:54;86515.22;;;9.50;49.49
43838;BME280;65998;46.256;7.534;2024-03-23T06:01:20;86522.09;;;9.49;50.29
43838;BME280;65998;46.256;7.534;2024-03-23T06:03:46;86537.81;;;9.52;49.79
43838;BME280;65998;46.256;7.534;2024-03-23T06:06:11;86542.63;;;9.52;49.95
43838;BME280;65998;46.256;7.534;2024-03-23T06:08:38;86542.72;;;9.44;52.31
43838;BME280;65998;46.256;7.534;2024-03-23T06:11:04;86549.22;;;9.18;58.23
43838;BME280;65998;46.256;7.534;2024-03-23T06:13:30;86569.31;;;9.00;65.70
43838;BME280;65998;46.256;7.534;2024-03-23T06:15:56;86559.16;;;8.88;76.08
43838;BME280;65998;46.256;7.534;2024-03-23T06:18:21;86565.28;;;8.91;82.46
43838;BME280;65998;46.256;7.534;2024-03-23T06:20:47;86566.78;;;8.80;88.13
43838;BME280;65998;46.256;7.534;2024-03-23T06:23:13;86579.09;;;8.81;92.46
43838;BME280;65998;46.256;7.534;2024-03-23T06:25:39;86581.81;;;8.85;95.30
43838;BME280;65998;46.256;7.534;2024-03-23T06:28:05;86588.66;;;8.84;96.25
43838;BME280;65998;46.256;7.534;2024-03-23T06:30:31;86584.09;;;8.62;98.00
43838;BME280;65998;46.256;7.534;2024-03-23T06:32:56;86582.84;;;8.49;100.00
43838;BME280;65998;46.256;7.534;2024-03-23T06:35:22;86585.59;;;8.49;100.00
43838;BME280;65998;46.256;7.534;2024-03-23T06:37:48;86587.72;;;8.40;100.00
43838;BME280;65998;46.256;7.534;2024-03-23T06:40:14;86593.25;;;8.30;100.00
43838;BME280;65998;46.256;7.534;2024-03-23T06:42:40;86591.19;;;8.35;100.00
43838;BME280;65998;46.256;7.534;2024-03-23T06:45:06;86582.31;;;8.34;100.00
43838;BME280;65998;46.256;7.534;2024-03-23T06:47:32;86568.69;;;8.20;100.00
43838;BME280;65998;46.256;7.534;2024-03-23T06:50:03;86563.88;;;8.22;100.00
43838;BME280;65998;46.256;7.534;2024-03-23T06:52:29;86560.44;;;8.26;100.00
43838;BME280;65998;46.256;7.534;2024-03-23T06:54:57;86569.38;;;8.20;100.00
43838;BME280;65998;46.256;7.534;2024-03-23T06:57:23;86560.50;;;8.20;100.00
43838;BME280;65998;46.256;7.534;2024-03-23T06:59:49;86572.88;;;8.13;100.00
43838;BME280;65998;46.256;7.534;2024-03-23T07:02:14;86560.66;;;7.99;100.00
43838;BME280;65998;46.256;7.534;2024-03-23T07:04:40;86592.13;;;7.98;100.00
43838;BME280;65998;46.256;7.534;2024-03-23T07:07:06;86592.72;;;8.09;100.00
43838;BME280;65998;46.256;7.534;2024-03-23T07:09:32;86585.19;;;8.12;100.00
43838;BME280;65998;46.256;7.534;2024-03-23T07:11:58;86579.72;;;8.12;100.00
43838;BME280;65998;46.256;7.534;2024-03-23T07:14:24;86594.69;;;8.21;100.00
43838;BME280;65998;46.256;7.534;2024-03-23T07:16:50;86585.75;;;8.26;100.00
43838;BME280;65998;46.256;7.534;2024-03-23T07:19:17;86577.53;;;8.26;100.00
43838;BME280;65998;46.256;7.534;2024-03-23T07:21:46;86576.13;;;8.36;100.00
43838;BME280;65998;46.256;7.534;2024-03-23T07:24:12;86585.44;;;8.65;100.00
43838;BME280;65998;46.256;7.534;2024-03-23T07:26:38;86577.47;;;9.04;100.00
43838;BME280;65998;46.256;7.534;2024-03-23T07:29:06;86578.72;;;9.13;100.00
43838;BME280;65998;46.256;7.534;2024-03-23T07:31:32;86574.00;;;9.08;100.00
43838;BME280;65998;46.256;7.534;2024-03-23T07:33:59;86569.19;;;9.08;100.00
43838;BME280;65998;46.256;7.534;2024-03-23T07:36:25;86567.22;;;9.03;100.00
43838;BME280;65998;46.256;7.534;2024-03-23T07:38:51;86569.31;;;8.98;100.00
43838;BME280;65998;46.256;7.534;2024-03-23T07:41:20;86567.97;;;8.97;100.00
43838;BME280;65998;46.256;7.534;2024-03-23T07:43:47;86573.34;;;9.05;100.00
43838;BME280;65998;46.256;7.534;2024-03-23T07:46:16;86560.84;;;9.20;100.00
43838;BME280;65998;46.256;7.534;2024-03-23T07:48:42;86573.28;;;9.11;100.00
43838;BME280;65998;46.256;7.534;2024-03-23T07:51:17;86593.31;;;8.98;100.00
43838;BME280;65998;46.256;7.534;2024-03-23T07:53:44;86579.00;;;8.91;100.00
43838;BME280;65998;46.256;7.534;2024-03-23T07:56:10;86593.41;;;8.87;100.00
43838;BME280;65998;46.256;7.534;2024-03-23T07:58:38;86592.25;;;8.68;100.00
43838;BME280;65998;46.256;7.534;2024-03-23T08:01:05;86584.13;;;8.60;100.00
43838;BME280;65998;46.256;7.534;2024-03-23T08:03:32;86592.31;;;8.62;100.00
43838;BME280;65998;46.256;7.534;2024-03-23T08:06:06;86586.78;;;8.68;100.00
43838;BME280;65998;46.256;7.534;2024-03-23T08:08:32;86592.81;;;8.79;100.00
43838;BME280;65998;46.256;7.534;2024-03-23T08:10:58;86583.03;;;8.96;100.00
43838;BME280;65998;46.256;7.534;2024-03-23T08:13:24;86570.41;;;9.21;100.00
43838;BME280;65998;46.256;7.534;2024-03-23T08:15:50;86571.50;;;9.47;100.00
43838;BME280;65998;46.256;7.534;2024-03-23T08:18:16;86561.16;;;9.49;100.00
43838;BME280;65998;46.256;7.534;2024-03-23T08:20:41;86552.31;;;9.45;100.00
43838;BME280;65998;46.256;7.534;2024-03-23T08:23:08;86563.41;;;9.37;100.00
43838;BME280;65998;46.256;7.534;2024-03-23T08:25:35;86568.88;;;9.37;100.00
43838;BME280;65998;46.256;7.534;2024-03-23T08:28:01;86573.03;;;9.32;100.00
43838;BME280;65998;46.256;7.534;2024-03-23T08:30:28;86576.53;;;9.26;100.00
43838;BME280;65998;46.256;7.534;2024-03-23T08:32:53;86575.28;;;9.17;100.00
43838;BME280;65998;46.256;7.534;2024-03-23T08:35:19;86569.19;;;9.10;100.00
43838;BME280;65998;46.256;7.534;2024-03-23T08:37:45;86569.38;;;8.94;100.00
43838;BME280;65998;46.256;7.534;2024-03-23T08:40:11;86563.34;;;8.81;100.00
43838;BME280;65998;46.256;7.534;2024-03-23T08:42:37;86567.97;;;8.97;100.00
43838;BME280;65998;46.256;7.534;2024-03-23T08:45:03;86577.00;;;8.85;100.00
43838;BME280;65998;46.256;7.534;2024-03-23T08:47:29;86572.28;;;8.78;100.00
43838;BME280;65998;46.256;7.534;2024-03-23T08:49:55;86581.22;;;8.74;100.00
43838;BME280;65998;46.256;7.534;2024-03-23T08:52:21;86581.94;;;8.73;100.00
43838;BME280;65998;46.256;7.534;2024-03-23T08:54:46;86588.31;;;9.14;100.00
43838;BME280;65998;46.256;7.534;2024-03-23T08:57:12;86568.78;;;9.45;92.25
43838;BME280;65998;46.256;7.534;2024-03-23T08:59:38;86568.59;;;9.59;91.72
43838;BME280;65998;46.256;7.534;2024-03-23T09:02:04;86575.59;;;9.48;96.62
43838;BME280;65998;46.256;7.534;2024-03-23T09:04:29;86577.09;;;9.37;100.00
43838;BME280;65998;46.256;7.534;2024-03-23T09:06:55;86568.91;;;9.33;97.09
43838;BME280;65998;46.256;7.534;2024-03-23T09:09:21;86564.31;;;9.70;91.07
43838;BME280;65998;46.256;7.534;2024-03-23T09:11:47;86573.25;;;9.69;90.84
43838;BME280;65998;46.256;7.534;2024-03-23T09:14:13;86560.78;;;10.23;87.38
43838;BME280;65998;46.256;7.534;2024-03-23T09:16:38;86559.34;;;11.08;81.71
43838;BME280;65998;46.256;7.534;2024-03-23T09:19:04;86556.91;;;12.84;69.79
43838;BME280;65998;46.256;7.534;2024-03-23T09:21:30;86544.88;;;14.22;64.60
43838;BME280;65998;46.256;7.534;2024-03-23T09:23:56;86554.16;;;15.64;64.61
43838;BME280;65998;46.256;7.534;2024-03-23T09:26:22;86549.94;;;15.86;57.15
43838;BME280;65998;46.256;7.534;2024-03-23T09:28:50;86554.84;;;15.02;58.25
43838;BME280;65998;46.256;7.534;2024-03-23T09:31:16;86549.13;;;14.65;60.59
43838;BME280;65998;46.256;7.534;2024-03-23T09:33:42;86549.06;;;14.44;58.77
43838;BME280;65998;46.256;7.534;2024-03-23T09:36:09;86558.66;;;13.50;60.04
43838;BME280;65998;46.256;7.534;2024-03-23T09:38:35;86547.69;;;12.67;60.46
43838;BME280;65998;46.256;7.534;2024-03-23T09:41:07;86549.56;;;12.17;61.92
43838;BME280;65998;46.256;7.534;2024-03-23T09:43:33;86545.41;;;11.54;63.86
43838;BME280;65998;46.256;7.534;2024-03-23T09:45:59;86536.09;;;11.01;69.27
43838;BME280;65998;46.256;7.534;2024-03-23T09:48:25;86543.41;;;10.78;74.79
43838;BME280;65998;46.256;7.534;2024-03-23T09:50:51;86538.69;;;10.31;72.52
43838;BME280;65998;46.256;7.534;2024-03-23T09:53:16;86563.97;;;9.95;75.78
43838;BME280;65998;46.256;7.534;2024-03-23T09:55:44;86546.16;;;9.91;75.61
43838;BME280;65998;46.256;7.534;2024-03-23T09:58:15;86551.38;;;9.63;76.61
43838;BME280;65998;46.256;7.534;2024-03-23T10:00:41;86563.31;;;9.43;78.23
43838;BME280;65998;46.256;7.534;2024-03-23T10:03:07;86563.16;;;8.98;83.91
43838;BME280;65998;46.256;7.534;2024-03-23T10:05:33;86573.38;;;8.38;84.37
43838;BME280;65998;46.256;7.534;2024-03-23T10:07:58;86560.53;;;8.14;88.53
43838;BME280;65998;46.256;7.534;2024-03-23T10:10:25;86568.84;;;8.04;90.79
43838;BME280;65998;46.256;7.534;2024-03-23T10:12:52;86567.63;;;7.82;85.91
43838;BME280;65998;46.256;7.534;2024-03-23T10:15:24;86575.16;;;7.82;88.24
43838;BME280;65998;46.256;7.534;2024-03-23T10:17:51;86581.34;;;7.78;92.05
43838;BME280;65998;46.256;7.534;2024-03-23T10:20:22;86584.91;;;7.58;92.35
43838;BME280;65998;46.256;7.534;2024-03-23T10:22:49;86588.41;;;7.45;97.70
43838;BME280;65998;46.256;7.534;2024-03-23T10:25:17;86603.47;;;7.35;97.66
43838;BME280;65998;46.256;7.534;2024-03-23T10:28:01;86632.81;;;7.43;95.36
43838;BME280;65998;46.256;7.534;2024-03-23T10:30:27;86628.13;;;7.29;99.07
43838;BME280;65998;46.256;7.534;2024-03-23T10:33:09;86618.66;;;7.00;100.00
43838;BME280;65998;46.256;7.534;2024-03-23T10:35:37;86628.31;;;6.72;100.00
43838;BME280;65998;46.256;7.534;2024-03-23T10:38:07;86624.25;;;6.59;100.00
43838;BME280;65998;46.256;7.534;2024-03-23T10:40:35;86629.72;;;6.43;100.00
43838;BME280;65998;46.256;7.534;2024-03-23T10:43:03;86648.16;;;6.45;100.00
43838;BME280;65998;46.256;7.534;2024-03-23T10:45:30;86629.06;;;6.40;100.00
43838;BME280;65998;46.256;7.534;2024-03-23T10:47:57;86634.50;;;6.45;100.00
43838;BME280;65998;46.256;7.534;2024-03-23T10:50:24;86618.78;;;6.53;100.00
43838;BME280;65998;46.256;7.534;2024-03-23T10:52:52;86638.56;;;6.64;92.04
43838;BME280;65998;46.256;7.534;2024-03-23T10:55:20;86644.66;;;6.79;86.28
43838;BME280;65998;46.256;7.534;2024-03-23T10:57:54;86635.03;;;7.02;80.57
43838;BME280;65998;46.256;7.534;2024-03-23T11:00:20;86645.88;;;7.28;74.66
43838;BME280;65998;46.256;7.534;2024-03-23T11:02:48;86654.66;;;7.51;73.85
43838;BME280;65998;46.256;7.534;2024-03-23T11:07:54;86667.59;;;7.59;70.65
43838;BME280;65998;46.256;7.534;2024-03-23T11:10:30;86668.78;;;7.90;70.61
43838;BME280;65998;46.256;7.534;2024-03-23T11:12:58;86660.69;;;9.95;66.10
43838;BME280;65998;46.256;7.534;2024-03-23T11:15:25;86670.81;;;10.09;61.53
43838;BME280;65998;46.256;7.534;2024-03-23T11:20:32;86682.22;;;12.91;51.35
43838;BME280;65998;46.256;7.534;2024-03-23T11:22:59;86674.63;;;12.92;48.87
43838;BME280;65998;46.256;7.534;2024-03-23T11:25:27;86688.59;;;13.13;46.68
43838;BME280;65998;46.256;7.534;2024-03-23T11:27:55;86692.47;;;12.95;47.55
43838;BME280;65998;46.256;7.534;2024-03-23T11:30:24;86700.56;;;13.61;46.48
43838;BME280;65998;46.256;7.534;2024-03-23T11:32:55;86700.13;;;14.29;44.12
43838;BME280;65998;46.256;7.534;2024-03-23T11:35:31;86692.19;;;16.00;41.86
43838;BME280;65998;46.256;7.534;2024-03-23T11:38:15;86699.81;;;15.12;41.99
43838;BME280;65998;46.256;7.534;2024-03-23T11:40:42;86688.69;;;16.20;39.98
43838;BME280;65998;46.256;7.534;2024-03-23T11:43:12;86680.41;;;16.97;38.01
43838;BME280;65998;46.256;7.534;2024-03-23T11:45:45;86672.16;;;17.85;36.69
43838;BME280;65998;46.256;7.534;2024-03-23T11:48:16;86670.53;;;18.07;37.84
43838;BME280;65998;46.256;7.534;2024-03-23T11:50:44;86666.44;;;18.54;37.40
43838;BME280;65998;46.256;7.534;2024-03-23T11:53:18;86672.78;;;19.91;36.48
43838;BME280;65998;46.256;7.534;2024-03-23T11:55:51;86650.19;;;20.82;33.77
43838;BME280;65998;46.256;7.534;2024-03-23T11:58:18;86652.47;;;19.34;33.13
43838;BME280;65998;46.256;7.534;2024-03-23T12:00:51;86633.09;;;19.61;31.52
43838;BME280;65998;46.256;7.534;2024-03-23T12:03:17;86634.13;;;19.39;31.82
43838;BME280;65998;46.256;7.534;2024-03-23T12:05:50;86626.13;;;20.04;31.23
43838;BME280;65998;46.256;7.534;2024-03-23T12:10:48;86616.66;;;20.82;29.09
43838;BME280;65998;46.256;7.534;2024-03-23T12:13:21;86609.25;;;21.16;29.51
43838;BME280;65998;46.256;7.534;2024-03-23T12:15:50;86615.44;;;21.44;27.66
43838;BME280;65998;46.256;7.534;2024-03-23T12:18:16;86595.19;;;21.56;27.74
43838;BME280;65998;46.256;7.534;2024-03-23T12:20:42;86597.09;;;21.98;26.83
43838;BME280;65998;46.256;7.534;2024-03-23T12:23:08;86604.72;;;21.36;27.02
43838;BME280;65998;46.256;7.534;2024-03-23T12:25:35;86591.50;;;21.98;25.24
43838;BME280;65998;46.256;7.534;2024-03-23T12:28:01;86593.97;;;22.04;25.11
43838;BME280;65998;46.256;7.534;2024-03-23T12:30:27;86584.44;;;21.10;27.94
43838;BME280;65998;46.256;7.534;2024-03-23T12:32:53;86581.44;;;22.03;25.66
43838;BME280;65998;46.256;7.534;2024-03-23T12:35:19;86572.53;;;22.83;26.32
43838;BME280;65998;46.256;7.534;2024-03-23T12:37:45;86575.78;;;22.28;24.33
43838;BME280;65998;46.256;7.534;2024-03-23T12:40:11;86579.16;;;23.24;23.31
43838;BME280;65998;46.256;7.534;2024-03-23T12:42:36;86557.69;;;22.98;24.20
43838;BME280;65998;46.256;7.534;2024-03-23T12:45:03;86557.28;;;22.93;23.60
43838;BME280;65998;46.256;7.534;2024-03-23T12:47:30;86554.50;;;23.38;24.67
43838;BME280;65998;46.256;7.534;2024-03-23T12:49:56;86547.56;;;23.92;22.94
43838;BME280;65998;46.256;7.534;2024-03-23T12:52:21;86547.34;;;24.49;22.59
43838;BME280;65998;46.256;7.534;2024-03-23T12:54:47;86546.69;;;24.49;22.45
43838;BME280;65998;46.256;7.534;2024-03-23T12:57:13;86533.09;;;24.94;22.36
43838;BME280;65998;46.256;7.534;2024-03-23T12:59:39;86536.22;;;25.61;22.46
43838;BME280;65998;46.256;7.534;2024-03-23T13:02:05;86522.22;;;25.99;20.33
43838;BME280;65998;46.256;7.534;2024-03-23T13:04:31;86519.75;;;26.15;20.05
43838;BME280;65998;46.256;7.534;2024-03-23T13:06:56;86525.88;;;26.17;20.17
43838;BME280;65998;46.256;7.534;2024-03-23T13:09:22;86524.09;;;26.22;20.94
43838;BME280;65998;46.256;7.534;2024-03-23T13:11:48;86536.97;;;25.81;20.44
43838;BME280;65998;46.256;7.534;2024-03-23T13:14:14;86530.63;;;26.49;20.28
43838;BME280;65998;46.256;7.534;2024-03-23T13:16:40;86536.84;;;26.21;19.60
43838;BME280;65998;46.256;7.534;2024-03-23T13:19:06;86526.09;;;26.62;19.21
43838;BME280;65998;46.256;7.534;2024-03-23T13:21:31;86540.09;;;25.96;18.62
43838;BME280;65998;46.256;7.534;2024-03-23T13:23:57;86540.22;;;26.43;19.82
43838;BME280;65998;46.256;7.534;2024-03-23T13:26:23;86553.09;;;26.21;18.47
43838;BME280;65998;46.256;7.534;2024-03-23T13:28:49;86542.81;;;26.36;19.28
43838;BME280;65998;46.256;7.534;2024-03-23T13:31:14;86550.56;;;25.67;17.54
43838;BME280;65998;46.256;7.534;2024-03-23T13:33:40;86544.94;;;25.67;19.29
43838;BME280;65998;46.256;7.534;2024-03-23T13:36:06;86531.72;;;25.85;19.12
43838;BME280;65998;46.256;7.534;2024-03-23T13:38:32;86535.44;;;25.32;18.88
43838;BME280;65998;46.256;7.534;2024-03-23T13:40:59;86517.66;;;25.25;19.37
43838;BME280;65998;46.256;7.534;2024-03-23T13:43:27;86520.03;;;24.69;20.97
43838;BME280;65998;46.256;7.534;2024-03-23T13:45:56;86519.53;;;24.45;21.11
43838;BME280;65998;46.256;7.534;2024-03-23T13:48:24;86509.50;;;23.95;20.91
43838;BME280;65998;46.256;7.534;2024-03-23T13:50:58;86520.16;;;23.27;21.58
43838;BME280;65998;46.256;7.534;2024-03-23T13:53:26;86506.94;;;22.68;19.66
43838;BME280;65998;46.256;7.534;2024-03-23T13:55:52;86490.78;;;21.98;21.49
43838;BME280;65998;46.256;7.534;2024-03-23T13:58:20;86505.50;;;22.92;19.23
43838;BME280;65998;46.256;7.534;2024-03-23T14:00:46;86498.97;;;24.17;19.86
43838;BME280;65998;46.256;7.534;2024-03-23T14:03:14;86499.19;;;23.81;19.92